sensor_id;sensor_type;location;lat;lon;timestamp;pressure;altitude;pressure_sealevel;temperature;humidity
65359;BME280;52491;45.900;6.346;2023-08-06T00:00:04;93612.97;;;27.00;35.63
65359;BME280;52491;45.900;6.346;2023-08-06T00:02:30;93614.56;;;27.01;35.38
65359;BME280;52491;45.900;6.346;2023-08-06T00:04:56;93618.03;;;27.02;35.51
65359;BME280;52491;45.900;6.346;2023-08-06T00:07:21;93611.09;;;27.01;35.42
65359;BME280;52491;45.900;6.346;2023-08-06T00:09:47;93612.66;;;27.02;35.39
65359;BME280;52491;45.900;6.346;2023-08-06T00:12:13;93611.09;;;27.01;35.33
65359;BME280;52491;45.900;6.346;2023-08-06T00:14:38;93609.19;;;27.01;35.36
65359;BME280;52491;45.900;6.346;2023-08-06T00:17:04;93611.09;;;27.01;35.51
65359;BME280;52491;45.900;6.346;2023-08-06T00:19:31;93610.28;;;27.00;35.51
65359;BME280;52491;45.900;6.346;2023-08-06T00:21:56;93610.28;;;27.00;35.36
65359;BME280;52491;45.900;6.346;2023-08-06T00:24:22;93612.97;;;27.00;35.52
65359;BME280;52491;45.900;6.346;2023-08-06T00:26:48;93607.63;;;27.00;35.59
65359;BME280;52491;45.900;6.346;2023-08-06T00:29:13;93618.31;;;27.00;35.41
65359;BME280;52491;45.900;6.346;2023-08-06T00:31:39;93612.97;;;27.00;35.40
65359;BME280;52491;45.900;6.346;2023-08-06T00:34:04;93612.19;;;27.00;35.37
65359;BME280;52491;45.900;6.346;2023-08-06T00:36:30;93607.88;;;26.99;35.48
65359;BME280;52491;45.900;6.346;2023-08-06T00:38:55;93616.72;;;26.99;35.37
65359;BME280;52491;45.900;6.346;2023-08-06T00:41:21;93607.09;;;26.98;35.30
65359;BME280;52491;45.900;6.346;2023-08-06T00:43:47;93607.88;;;26.99;35.53
65359;BME280;52491;45.900;6.346;2023-08-06T00:46:13;93614.84;;;27.00;35.50
65359;BME280;52491;45.900;6.346;2023-08-06T00:48:40;93607.09;;;26.98;35.31
65359;BME280;52491;45.900;6.346;2023-08-06T00:51:06;93600.97;;;26.98;35.64
65359;BME280;52491;45.900;6.346;2023-08-06T00:53:32;93593.72;;;26.98;35.23
65359;BME280;52491;45.900;6.346;2023-08-06T00:55:58;93576.09;;;26.97;35.14
65359;BME280;52491;45.900;6.346;2023-08-06T00:58:24;93592.13;;;26.97;35.53
65359;BME280;52491;45.900;6.346;2023-08-06T01:00:50;93586.78;;;26.97;35.40
65359;BME280;52491;45.900;6.346;2023-08-06T01:03:15;93584.91;;;26.98;35.40
65359;BME280;52491;45.900;6.346;2023-08-06T01:05:41;93597.50;;;26.97;35.43
65359;BME280;52491;45.900;6.346;2023-08-06T01:08:15;93602.84;;;26.97;35.52
65359;BME280;52491;45.900;6.346;2023-08-06T01:13:50;93588.94;;;26.95;35.38
65359;BME280;52491;45.900;6.346;2023-08-06T01:16:20;93595.09;;;26.96;35.47
65359;BME280;52491;45.900;6.346;2023-08-06T01:18:49;93585.97;;;26.97;35.27
65359;BME280;52491;45.900;6.346;2023-08-06T01:21:16;93584.38;;;26.96;35.09
65359;BME280;52491;45.900;6.346;2023-08-06T01:23:42;93579.03;;;26.96;35.52
65359;BME280;52491;45.900;6.346;2023-08-06T01:31:43;93573.16;;;26.94;35.42
65359;BME280;52491;45.900;6.346;2023-08-06T01:34:15;93574.00;;;26.94;35.27
65359;BME280;52491;45.900;6.346;2023-08-06T01:36:42;93568.63;;;26.94;35.23
65359;BME280;52491;45.900;6.346;2023-08-06T01:39:08;93580.13;;;26.95;35.28
65359;BME280;52491;45.900;6.346;2023-08-06T01:41:34;93576.66;;;26.94;35.41
65359;BME280;52491;45.900;6.346;2023-08-06T01:43:59;93579.03;;;26.96;35.21
65359;BME280;52491;45.900;6.346;2023-08-06T01:46:25;93577.16;;;26.96;35.18
65359;BME280;52491;45.900;6.346;2023-08-06T01:48:50;93570.22;;;26.95;35.19
65359;BME280;52491;45.900;6.346;2023-08-06T01:51:16;93575.56;;;26.95;35.41
65359;BME280;52491;45.900;6.346;2023-08-06T01:53:41;93571.00;;;26.96;35.13
65359;BME280;52491;45.900;6.346;2023-08-06T01:56:07;93569.00;;;27.07;35.05
65359;BME280;52491;45.900;6.346;2023-08-06T01:58:33;93582.59;;;27.10;34.91
65359;BME280;52491;45.900;6.346;2023-08-06T02:00:58;93592.53;;;27.10;35.20
65359;BME280;52491;45.900;6.346;2023-08-06T02:03:24;93588.75;;;27.11;34.78
65359;BME280;52491;45.900;6.346;2023-08-06T02:05:49;93578.88;;;27.11;34.88
65359;BME280;52491;45.900;6.346;2023-08-06T02:08:15;93580.72;;;27.11;35.13
65359;BME280;52491;45.900;6.346;2023-08-06T02:10:41;93582.34;;;27.12;34.82
65359;BME280;52491;45.900;6.346;2023-08-06T02:13:09;93580.44;;;27.12;34.74
65359;BME280;52491;45.900;6.346;2023-08-06T02:15:41;93577.78;;;27.12;35.03
65359;BME280;52491;45.900;6.346;2023-08-06T02:18:08;93560.94;;;27.12;34.76
65359;BME280;52491;45.900;6.346;2023-08-06T02:20:35;93585.78;;;27.12;34.97
65359;BME280;52491;45.900;6.346;2023-08-06T02:23:02;93579.66;;;27.12;34.92
65359;BME280;52491;45.900;6.346;2023-08-06T02:25:28;93568.16;;;27.11;34.97
65359;BME280;52491;45.900;6.346;2023-08-06T02:27:54;93563.59;;;27.12;35.05
65359;BME280;52491;45.900;6.346;2023-08-06T02:30:19;93582.34;;;27.12;34.96
65359;BME280;52491;45.900;6.346;2023-08-06T02:32:45;93591.94;;;27.13;34.75
65359;BME280;52491;45.900;6.346;2023-08-06T02:35:10;93578.88;;;27.11;34.88
65359;BME280;52491;45.900;6.346;2023-08-06T02:37:36;93575.09;;;27.12;34.91
65359;BME280;52491;45.900;6.346;2023-08-06T02:40:02;93568.16;;;27.11;34.92
65359;BME280;52491;45.900;6.346;2023-08-06T02:42:29;93575.38;;;27.11;34.77
65359;BME280;52491;45.900;6.346;2023-08-06T02:44:54;93595.97;;;27.10;35.09
65359;BME280;52491;45.900;6.346;2023-08-06T02:47:20;93597.59;;;27.11;34.67
65359;BME280;52491;45.900;6.346;2023-08-06T02:49:46;93597.88;;;27.10;34.98
65359;BME280;52491;45.900;6.346;2023-08-06T02:52:12;93593.59;;;27.09;34.77
65359;BME280;52491;45.900;6.346;2023-08-06T02:54:37;93595.19;;;27.10;35.05
65359;BME280;52491;45.900;6.346;2023-08-06T02:57:04;93589.84;;;27.10;34.95
65359;BME280;52491;45.900;6.346;2023-08-06T02:59:30;93596.78;;;27.11;34.86
65359;BME280;52491;45.900;6.346;2023-08-06T03:01:56;93592.53;;;27.10;34.94
65359;BME280;52491;45.900;6.346;2023-08-06T03:04:21;93573.78;;;27.10;35.06
65359;BME280;52491;45.900;6.346;2023-08-06T03:06:49;93574.88;;;27.09;34.71
65359;BME280;52491;45.900;6.346;2023-08-06T03:09:15;93575.66;;;27.09;34.84
65359;BME280;52491;45.900;6.346;2023-08-06T03:11:41;93565.25;;;27.08;34.94
65359;BME280;52491;45.900;6.346;2023-08-06T03:14:06;93573.25;;;27.08;35.00
65359;BME280;52491;45.900;6.346;2023-08-06T03:16:32;93570.59;;;27.08;34.98
65359;BME280;52491;45.900;6.346;2023-08-06T03:18:57;93569.00;;;27.07;34.93
65359;BME280;52491;45.900;6.346;2023-08-06T03:21:23;93569.81;;;27.07;34.77
65359;BME280;52491;45.900;6.346;2023-08-06T03:23:48;93575.16;;;27.07;34.65
65359;BME280;52491;45.900;6.346;2023-08-06T03:26:14;93569.00;;;27.07;35.07
65359;BME280;52491;45.900;6.346;2023-08-06T03:28:40;93574.38;;;27.07;35.02
65359;BME280;52491;45.900;6.346;2023-08-06T03:31:05;93581.59;;;27.06;34.66
65359;BME280;52491;45.900;6.346;2023-08-06T03:33:31;93583.47;;;27.06;34.85
65359;BME280;52491;45.900;6.346;2023-08-06T03:35:56;93573.56;;;27.06;34.77
65359;BME280;52491;45.900;6.346;2023-08-06T03:38:22;93566.34;;;27.07;35.08
65359;BME280;52491;45.900;6.346;2023-08-06T03:40:49;93560.47;;;27.05;34.64
65359;BME280;52491;45.900;6.346;2023-08-06T03:43:14;93559.41;;;27.06;34.93
65359;BME280;52491;45.900;6.346;2023-08-06T03:45:40;93562.06;;;27.06;34.88
65359;BME280;52491;45.900;6.346;2023-08-06T03:48:06;93561.25;;;27.05;35.11
65359;BME280;52491;45.900;6.346;2023-08-06T03:50:32;93560.47;;;27.05;34.94
65359;BME280;52491;45.900;6.346;2023-08-06T03:52:57;93551.38;;;27.06;34.72
65359;BME280;52491;45.900;6.346;2023-08-06T03:55:23;93560.47;;;27.05;35.01
65359;BME280;52491;45.900;6.346;2023-08-06T03:57:49;93580.00;;;27.05;34.64
65359;BME280;52491;45.900;6.346;2023-08-06T04:00:14;93570.09;;;27.06;34.71
65359;BME280;52491;45.900;6.346;2023-08-06T04:02:40;93572.78;;;27.06;34.66
65359;BME280;52491;45.900;6.346;2023-08-06T04:05:05;93575.72;;;27.04;34.72
65359;BME280;52491;45.900;6.346;2023-08-06T04:07:31;93584.53;;;27.05;34.79
65359;BME280;52491;45.900;6.346;2023-08-06T04:09:59;93589.91;;;27.05;34.72
65359;BME280;52491;45.900;6.346;2023-08-06T04:12:25;93570.38;;;27.04;34.61
65359;BME280;52491;45.900;6.346;2023-08-06T04:14:51;93550.84;;;27.04;34.59
65359;BME280;52491;45.900;6.346;2023-08-06T04:17:18;93565.81;;;27.05;34.68
65359;BME280;52491;45.900;6.346;2023-08-06T04:19:51;93581.88;;;27.05;34.53
65359;BME280;52491;45.900;6.346;2023-08-06T04:22:17;93580.00;;;27.05;34.47
65359;BME280;52491;45.900;6.346;2023-08-06T04:24:43;93586.44;;;27.04;34.58
65359;BME280;52491;45.900;6.346;2023-08-06T04:27:12;93587.22;;;27.05;34.41
65359;BME280;52491;45.900;6.346;2023-08-06T04:29:38;93585.63;;;27.04;34.54
65359;BME280;52491;45.900;6.346;2023-08-06T04:32:06;93586.69;;;27.02;34.45
65359;BME280;52491;45.900;6.346;2023-08-06T04:34:31;93604.38;;;27.04;34.45
65359;BME280;52491;45.900;6.346;2023-08-06T04:39:23;93600.09;;;27.02;34.32
65359;BME280;52491;45.900;6.346;2023-08-06T04:41:49;93606.53;;;27.01;34.40
65359;BME280;52491;45.900;6.346;2023-08-06T04:44:14;93594.72;;;27.02;34.29
65359;BME280;52491;45.900;6.346;2023-08-06T04:46:40;93600.38;;;27.01;34.42
65359;BME280;52491;45.900;6.346;2023-08-06T04:49:05;93600.38;;;27.01;34.54
65359;BME280;52491;45.900;6.346;2023-08-06T04:51:31;93595.03;;;27.01;34.51
65359;BME280;52491;45.900;6.346;2023-08-06T04:53:57;93595.03;;;27.01;34.27
65359;BME280;52491;45.900;6.346;2023-08-06T04:56:22;93608.41;;;27.01;34.55
65359;BME280;52491;45.900;6.346;2023-08-06T04:58:48;93610.78;;;27.02;34.19
65359;BME280;52491;45.900;6.346;2023-08-06T05:01:14;93610.28;;;27.00;34.37
65359;BME280;52491;45.900;6.346;2023-08-06T05:03:39;93622.56;;;27.01;34.34
65359;BME280;52491;45.900;6.346;2023-08-06T05:06:05;93619.91;;;27.01;34.16
65359;BME280;52491;45.900;6.346;2023-08-06T05:08:30;93617.53;;;27.00;34.60
65359;BME280;52491;45.900;6.346;2023-08-06T05:10:56;93614.84;;;27.00;34.54
65359;BME280;52491;45.900;6.346;2023-08-06T05:13:21;93606.00;;;26.99;34.44
65359;BME280;52491;45.900;6.346;2023-08-06T05:15:47;93612.44;;;26.98;34.25
65359;BME280;52491;45.900;6.346;2023-08-06T05:18:13;93614.03;;;26.99;34.31
65359;BME280;52491;45.900;6.346;2023-08-06T05:20:40;93617.81;;;26.98;34.36
65359;BME280;52491;45.900;6.346;2023-08-06T05:23:06;93617.81;;;26.98;34.54
65359;BME280;52491;45.900;6.346;2023-08-06T05:25:31;93615.13;;;26.98;34.16
65359;BME280;52491;45.900;6.346;2023-08-06T05:27:57;93622.88;;;27.00;34.17
65359;BME280;52491;45.900;6.346;2023-08-06T05:30:22;93617.00;;;26.98;34.44
65359;BME280;52491;45.900;6.346;2023-08-06T05:32:48;93625.81;;;26.98;34.17
65359;BME280;52491;45.900;6.346;2023-08-06T05:35:13;93620.47;;;26.98;34.28
65359;BME280;52491;45.900;6.346;2023-08-06T05:37:39;93629.59;;;26.97;34.34
65359;BME280;52491;45.900;6.346;2023-08-06T05:40:05;93628.50;;;26.98;34.27
65359;BME280;52491;45.900;6.346;2023-08-06T05:42:30;93629.28;;;26.99;34.32
65359;BME280;52491;45.900;6.346;2023-08-06T05:44:56;93632.28;;;26.97;34.37
65359;BME280;52491;45.900;6.346;2023-08-06T05:47:21;93634.94;;;26.97;34.14
65359;BME280;52491;45.900;6.346;2023-08-06T05:49:47;93639.19;;;26.98;34.53
65359;BME280;52491;45.900;6.346;2023-08-06T05:52:13;93642.97;;;26.97;34.04
65359;BME280;52491;45.900;6.346;2023-08-06T05:54:38;93637.09;;;26.95;34.37
65359;BME280;52491;45.900;6.346;2023-08-06T05:57:05;93649.38;;;26.96;34.49
65359;BME280;52491;45.900;6.346;2023-08-06T05:59:31;93650.19;;;26.97;34.11
65359;BME280;52491;45.900;6.346;2023-08-06T06:01:57;93660.09;;;26.96;34.33
65359;BME280;52491;45.900;6.346;2023-08-06T06:04:22;93667.31;;;26.96;34.04
65359;BME280;52491;45.900;6.346;2023-08-06T06:06:48;93672.66;;;26.96;34.11
65359;BME280;52491;45.900;6.346;2023-08-06T06:09:13;93685.25;;;26.95;34.38
65359;BME280;52491;45.900;6.346;2023-08-06T06:11:39;93685.25;;;26.95;34.07
65359;BME280;52491;45.900;6.346;2023-08-06T06:14:04;93705.88;;;26.95;34.31
65359;BME280;52491;45.900;6.346;2023-08-06T06:16:30;93726.47;;;26.94;34.21
65359;BME280;52491;45.900;6.346;2023-08-06T06:18:56;93730.22;;;26.93;34.40
65359;BME280;52491;45.900;6.346;2023-08-06T06:21:23;93740.91;;;26.93;34.00
65359;BME280;52491;45.900;6.346;2023-08-06T06:23:49;93750.56;;;26.94;34.32
65359;BME280;52491;45.900;6.346;2023-08-06T06:26:17;93753.22;;;26.94;34.06
65359;BME280;52491;45.900;6.346;2023-08-06T06:28:42;93756.16;;;26.93;33.94
65359;BME280;52491;45.900;6.346;2023-08-06T06:31:08;93747.34;;;26.92;34.00
65359;BME280;52491;45.900;6.346;2023-08-06T06:33:34;93765.00;;;26.93;33.91
65359;BME280;52491;45.900;6.346;2023-08-06T06:36:00;93771.13;;;26.94;34.01
65359;BME280;52491;45.900;6.346;2023-08-06T06:38:28;93778.38;;;26.93;34.00
65359;BME280;52491;45.900;6.346;2023-08-06T06:40:57;93789.84;;;26.94;33.97
65359;BME280;52491;45.900;6.346;2023-08-06T06:43:23;93800.84;;;26.92;34.02
65359;BME280;52491;45.900;6.346;2023-08-06T06:45:59;93801.38;;;26.94;33.96
65359;BME280;52491;45.900;6.346;2023-08-06T06:48:28;93803.25;;;26.94;34.05
65359;BME280;52491;45.900;6.346;2023-08-06T06:50:55;93808.88;;;26.92;34.05
65359;BME280;52491;45.900;6.346;2023-08-06T06:53:21;93806.22;;;26.92;34.10
65359;BME280;52491;45.900;6.346;2023-08-06T06:55:53;93799.25;;;26.91;34.30
65359;BME280;52491;45.900;6.346;2023-08-06T06:58:18;93794.97;;;26.90;34.00
65359;BME280;52491;45.900;6.346;2023-08-06T07:00:45;93799.25;;;26.91;34.27
65359;BME280;52491;45.900;6.346;2023-08-06T07:03:11;93799.25;;;26.91;34.12
65359;BME280;52491;45.900;6.346;2023-08-06T07:05:37;93802.75;;;26.92;34.01
65359;BME280;52491;45.900;6.346;2023-08-06T07:08:02;93801.91;;;26.91;34.06
65359;BME280;52491;45.900;6.346;2023-08-06T07:10:28;93811.81;;;26.91;33.94
65359;BME280;52491;45.900;6.346;2023-08-06T07:12:53;93809.16;;;26.91;34.18
65359;BME280;52491;45.900;6.346;2023-08-06T07:15:20;93806.47;;;26.91;34.03
65359;BME280;52491;45.900;6.346;2023-08-06T07:17:45;93798.75;;;26.89;34.09
65359;BME280;52491;45.900;6.346;2023-08-06T07:20:11;93810.25;;;26.90;33.80
65359;BME280;52491;45.900;6.346;2023-08-06T07:22:36;93799.53;;;26.90;33.78
65359;BME280;52491;45.900;6.346;2023-08-06T07:25:02;93807.81;;;26.88;33.92
65359;BME280;52491;45.900;6.346;2023-08-06T07:27:28;93814.78;;;26.89;34.02
65359;BME280;52491;45.900;6.346;2023-08-06T07:29:53;93820.41;;;26.88;34.18
65359;BME280;52491;45.900;6.346;2023-08-06T07:32:19;93841.03;;;26.87;33.82
65359;BME280;52491;45.900;6.346;2023-08-06T07:34:44;93842.59;;;26.88;33.75
65359;BME280;52491;45.900;6.346;2023-08-06T07:37:10;93844.50;;;26.88;33.87
65359;BME280;52491;45.900;6.346;2023-08-06T07:39:36;93837.25;;;26.88;34.06
65359;BME280;52491;45.900;6.346;2023-08-06T07:42:03;93843.69;;;26.87;34.14
65359;BME280;52491;45.900;6.346;2023-08-06T07:44:31;93847.16;;;26.88;33.97
65359;BME280;52491;45.900;6.346;2023-08-06T07:46:56;93849.03;;;26.87;33.62
65359;BME280;52491;45.900;6.346;2023-08-06T07:49:23;93842.09;;;26.86;33.61
65359;BME280;52491;45.900;6.346;2023-08-06T07:51:49;93844.78;;;26.86;33.49
65359;BME280;52491;45.900;6.346;2023-08-06T07:54:17;93862.41;;;26.87;33.41
65359;BME280;52491;45.900;6.346;2023-08-06T07:56:42;93863.50;;;26.86;33.46
65359;BME280;52491;45.900;6.346;2023-08-06T07:59:08;93873.38;;;26.86;33.53
65359;BME280;52491;45.900;6.346;2023-08-06T08:01:34;93864.31;;;26.87;33.35
65359;BME280;52491;45.900;6.346;2023-08-06T08:04:00;93862.41;;;26.87;33.33
65359;BME280;52491;45.900;6.346;2023-08-06T08:06:26;93868.84;;;26.86;33.43
65359;BME280;52491;45.900;6.346;2023-08-06T08:08:52;93866.97;;;26.87;33.33
65359;BME280;52491;45.900;6.346;2023-08-06T08:11:20;93863.22;;;26.88;33.43
65359;BME280;52491;45.900;6.346;2023-08-06T08:13:47;93860.53;;;26.88;33.40
65359;BME280;52491;45.900;6.346;2023-08-06T08:16:13;93868.84;;;26.86;33.50
65359;BME280;52491;45.900;6.346;2023-08-06T08:18:39;93870.44;;;26.87;33.68
65359;BME280;52491;45.900;6.346;2023-08-06T08:21:04;93874.22;;;26.86;33.55
65359;BME280;52491;45.900;6.346;2023-08-06T08:23:30;93866.97;;;26.87;33.36
65359;BME280;52491;45.900;6.346;2023-08-06T08:25:56;93866.97;;;26.87;33.44
65359;BME280;52491;45.900;6.346;2023-08-06T08:28:23;93867.50;;;26.89;33.73
65359;BME280;52491;45.900;6.346;2023-08-06T08:30:50;93866.69;;;26.88;33.13
65359;BME280;52491;45.900;6.346;2023-08-06T08:33:16;93863.22;;;26.88;33.62
65359;BME280;52491;45.900;6.346;2023-08-06T08:35:41;93868.56;;;26.88;33.74
65359;BME280;52491;45.900;6.346;2023-08-06T08:38:07;93867.78;;;26.87;33.37
65359;BME280;52491;45.900;6.346;2023-08-06T08:40:38;93866.69;;;26.88;33.52
65359;BME280;52491;45.900;6.346;2023-08-06T08:43:07;93862.75;;;26.81;33.33
65359;BME280;52491;45.900;6.346;2023-08-06T08:45:34;93863.84;;;26.74;33.56
65359;BME280;52491;45.900;6.346;2023-08-06T08:48:05;93870.28;;;26.73;33.89
65359;BME280;52491;45.900;6.346;2023-08-06T08:50:31;93864.13;;;26.73;33.97
65359;BME280;52491;45.900;6.346;2023-08-06T08:52:58;93864.13;;;26.73;33.90
65359;BME280;52491;45.900;6.346;2023-08-06T08:55:23;93866.81;;;26.73;33.69
65359;BME280;52491;45.900;6.346;2023-08-06T08:57:49;93868.38;;;26.74;33.81
65359;BME280;52491;45.900;6.346;2023-08-06T09:00:15;93866.81;;;26.73;33.93
65359;BME280;52491;45.900;6.346;2023-08-06T09:02:41;93859.56;;;26.73;34.02
65359;BME280;52491;45.900;6.346;2023-08-06T09:05:09;93858.78;;;26.73;33.92
65359;BME280;52491;45.900;6.346;2023-08-06T09:07:45;93855.31;;;26.72;34.09
65359;BME280;52491;45.900;6.346;2023-08-06T09:10:13;93857.97;;;26.72;34.03
65359;BME280;52491;45.900;6.346;2023-08-06T09:12:41;93859.84;;;26.72;34.17
65359;BME280;52491;45.900;6.346;2023-08-06T09:15:07;93855.56;;;26.71;33.62
65359;BME280;52491;45.900;6.346;2023-08-06T09:17:32;93855.56;;;26.71;33.86
65359;BME280;52491;45.900;6.346;2023-08-06T09:19:58;93853.69;;;26.71;33.86
65359;BME280;52491;45.900;6.346;2023-08-06T09:22:24;93860.13;;;26.70;34.09
65359;BME280;52491;45.900;6.346;2023-08-06T09:24:50;93859.34;;;26.70;33.81
65359;BME280;52491;45.900;6.346;2023-08-06T09:27:16;93870.03;;;26.70;33.86
65359;BME280;52491;45.900;6.346;2023-08-06T09:29:45;93873.22;;;26.72;33.67
65359;BME280;52491;45.900;6.346;2023-08-06T09:32:12;93877.75;;;26.71;33.86
65359;BME280;52491;45.900;6.346;2023-08-06T09:34:46;93887.91;;;26.74;33.84
65359;BME280;52491;45.900;6.346;2023-08-06T09:37:12;93899.16;;;26.71;33.76
65359;BME280;52491;45.900;6.346;2023-08-06T09:39:39;93905.84;;;26.69;33.26
65359;BME280;52491;45.900;6.346;2023-08-06T09:42:05;93915.00;;;26.63;33.35
65359;BME280;52491;45.900;6.346;2023-08-06T09:44:32;93923.84;;;26.58;33.35
65359;BME280;52491;45.900;6.346;2023-08-06T09:47:00;93927.34;;;26.43;33.18
65359;BME280;52491;45.900;6.346;2023-08-06T09:51:58;93921.84;;;26.24;32.63
65359;BME280;52491;45.900;6.346;2023-08-06T09:54:26;93922.91;;;26.13;32.84
65359;BME280;52491;45.900;6.346;2023-08-06T09:56:53;93928.53;;;26.11;32.78
65359;BME280;52491;45.900;6.346;2023-08-06T09:59:20;93926.66;;;26.12;33.14
65359;BME280;52491;45.900;6.346;2023-08-06T10:01:47;93929.63;;;26.10;33.23
65359;BME280;52491;45.900;6.346;2023-08-06T10:04:15;93924.53;;;26.14;33.15
65359;BME280;52491;45.900;6.346;2023-08-06T10:06:47;93931.19;;;26.22;32.82
65359;BME280;52491;45.900;6.346;2023-08-06T10:09:14;93922.63;;;26.25;33.13
65359;BME280;52491;45.900;6.346;2023-08-06T10:11:40;93921.00;;;26.29;33.06
65359;BME280;52491;45.900;6.346;2023-08-06T10:14:13;93934.59;;;26.32;32.85
65359;BME280;52491;45.900;6.346;2023-08-06T10:16:41;93938.59;;;26.35;33.16
65359;BME280;52491;45.900;6.346;2023-08-06T10:19:10;93939.13;;;26.37;32.92
65359;BME280;52491;45.900;6.346;2023-08-06T10:21:40;93935.91;;;26.40;33.02
65359;BME280;52491;45.900;6.346;2023-08-06T10:24:13;93941.00;;;26.42;33.42
65359;BME280;52491;45.900;6.346;2023-08-06T10:26:40;93955.16;;;26.42;33.51
65359;BME280;52491;45.900;6.346;2023-08-06T10:29:36;93955.41;;;26.46;33.27
65359;BME280;52491;45.900;6.346;2023-08-06T10:32:03;93948.47;;;26.45;33.45
65359;BME280;52491;45.900;6.346;2023-08-06T10:34:57;93943.09;;;26.50;33.61
65359;BME280;52491;45.900;6.346;2023-08-06T10:37:36;93950.06;;;26.51;33.51
65359;BME280;52491;45.900;6.346;2023-08-06T10:40:06;93940.69;;;26.48;34.00
65359;BME280;52491;45.900;6.346;2023-08-06T10:42:33;93935.09;;;26.50;33.77
65359;BME280;52491;45.900;6.346;2023-08-06T10:45:13;93935.38;;;26.53;34.29
65359;BME280;52491;45.900;6.346;2023-08-06T10:47:40;93928.44;;;26.52;34.19
65359;BME280;52491;45.900;6.346;2023-08-06T10:50:16;93929.72;;;26.55;34.18
65359;BME280;52491;45.900;6.346;2023-08-06T10:52:46;93924.13;;;26.56;34.40
65359;BME280;52491;45.900;6.346;2023-08-06T10:55:13;93926.78;;;26.56;33.96
65359;BME280;52491;45.900;6.346;2023-08-06T10:57:39;93933.72;;;26.58;34.36
65359;BME280;52491;45.900;6.346;2023-08-06T11:00:06;93929.19;;;26.58;34.22
65359;BME280;52491;45.900;6.346;2023-08-06T11:02:36;93933.47;;;26.59;34.41
65359;BME280;52491;45.900;6.346;2023-08-06T11:05:06;93930.00;;;26.59;34.67
65359;BME280;52491;45.900;6.346;2023-08-06T11:07:32;93929.72;;;26.60;34.23
65359;BME280;52491;45.900;6.346;2023-08-06T11:10:07;93925.16;;;26.61;34.56
65359;BME280;52491;45.900;6.346;2023-08-06T11:12:34;93921.41;;;26.62;34.49
65359;BME280;52491;45.900;6.346;2023-08-06T11:15:01;93915.28;;;26.61;34.66
65359;BME280;52491;45.900;6.346;2023-08-06T11:17:28;93908.06;;;26.62;34.66
65359;BME280;52491;45.900;6.346;2023-08-06T11:19:54;93907.75;;;26.63;34.70
65359;BME280;52491;45.900;6.346;2023-08-06T11:22:23;93904.81;;;26.65;34.94
65359;BME280;52491;45.900;6.346;2023-08-06T11:24:49;93900.56;;;26.64;34.86
65359;BME280;52491;45.900;6.346;2023-08-06T11:27:16;93904.81;;;26.65;34.93
65359;BME280;52491;45.900;6.346;2023-08-06T11:29:43;93904.81;;;26.65;34.91
65359;BME280;52491;45.900;6.346;2023-08-06T11:32:10;93902.94;;;26.65;34.60
65359;BME280;52491;45.900;6.346;2023-08-06T11:34:36;93910.69;;;26.67;35.18
65359;BME280;52491;45.900;6.346;2023-08-06T11:37:06;93909.34;;;26.69;35.04
65359;BME280;52491;45.900;6.346;2023-08-06T11:39:36;93923.53;;;26.70;34.81
65359;BME280;52491;45.900;6.346;2023-08-06T11:42:06;93920.84;;;26.70;34.78
65359;BME280;52491;45.900;6.346;2023-08-06T11:44:35;93913.88;;;26.69;35.03
65359;BME280;52491;45.900;6.346;2023-08-06T11:47:05;93913.88;;;26.69;34.53
65359;BME280;52491;45.900;6.346;2023-08-06T11:49:45;93920.28;;;26.73;34.69
65359;BME280;52491;45.900;6.346;2023-08-06T11:52:20;93912.28;;;26.73;34.72
65359;BME280;52491;45.900;6.346;2023-08-06T11:54:47;93925.91;;;26.71;34.89
65359;BME280;52491;45.900;6.346;2023-08-06T11:57:13;93933.66;;;26.73;34.62
65359;BME280;52491;45.900;6.346;2023-08-06T11:59:39;93927.22;;;26.74;35.02
65359;BME280;52491;45.900;6.346;2023-08-06T12:02:08;93913.59;;;26.75;35.20
65359;BME280;52491;45.900;6.346;2023-08-06T12:04:57;93929.34;;;26.77;34.77
65359;BME280;52491;45.900;6.346;2023-08-06T12:07:29;93929.34;;;26.77;34.72
65359;BME280;52491;45.900;6.346;2023-08-06T12:09:55;93925.88;;;26.76;35.01
65359;BME280;52491;45.900;6.346;2023-08-06T12:12:21;93930.16;;;26.77;35.20
65359;BME280;52491;45.900;6.346;2023-08-06T12:14:47;93932.84;;;26.77;35.10
65359;BME280;52491;45.900;6.346;2023-08-06T12:17:13;93919.47;;;26.77;35.06
65359;BME280;52491;45.900;6.346;2023-08-06T12:19:38;93921.84;;;26.79;35.10
65359;BME280;52491;45.900;6.346;2023-08-06T12:22:04;93931.75;;;26.78;35.42
65359;BME280;52491;45.900;6.346;2023-08-06T12:24:29;93938.69;;;26.79;34.91
65359;BME280;52491;45.900;6.346;2023-08-06T12:26:59;93934.13;;;26.80;34.26
65359;BME280;52491;45.900;6.346;2023-08-06T12:29:27;93936.56;;;26.76;33.51
65359;BME280;52491;45.900;6.346;2023-08-06T12:31:53;93932.03;;;26.72;33.10
65359;BME280;52491;45.900;6.346;2023-08-06T12:34:19;93928.34;;;26.68;32.90
65359;BME280;52491;45.900;6.346;2023-08-06T12:36:44;93930.25;;;26.62;32.15
65359;BME280;52491;45.900;6.346;2023-08-06T12:39:10;93931.88;;;26.58;31.96
65359;BME280;52491;45.900;6.346;2023-08-06T12:41:36;93946.06;;;26.53;31.63
65359;BME280;52491;45.900;6.346;2023-08-06T12:44:02;93950.31;;;26.49;31.24
65359;BME280;52491;45.900;6.346;2023-08-06T12:46:28;93947.94;;;26.43;31.34
65359;BME280;52491;45.900;6.346;2023-08-06T12:48:53;93949.56;;;26.39;31.26
65359;BME280;52491;45.900;6.346;2023-08-06T12:51:19;93955.97;;;26.43;31.55
65359;BME280;52491;45.900;6.346;2023-08-06T12:53:45;93946.34;;;26.47;31.62
65359;BME280;52491;45.900;6.346;2023-08-06T12:56:10;93948.19;;;26.51;31.88
65359;BME280;52491;45.900;6.346;2023-08-06T12:58:36;93947.94;;;26.48;32.08
65359;BME280;52491;45.900;6.346;2023-08-06T13:01:03;93954.63;;;26.45;31.76
65359;BME280;52491;45.900;6.346;2023-08-06T13:03:29;93957.84;;;26.42;31.82
65359;BME280;52491;45.900;6.346;2023-08-06T13:05:55;93963.72;;;26.39;31.48
65359;BME280;52491;45.900;6.346;2023-08-06T13:08:21;93962.94;;;26.39;31.61
65359;BME280;52491;45.900;6.346;2023-08-06T13:10:47;93958.13;;;26.36;31.25